»·PEaware :: N716JT KPVU-KCEC

N716JT :: KPVU-KCEC

FLIGHT INFORMATION

Flight Status: Arrived
Operator: Privately registered:
United States
More flights under this callsign
Pilot: Peter S. (25461)
Aircraft: DASSAULT AVIATION FALCON 50
(FA50)
More flights by this aircraft type
Origin: KPVU Provo Mun
United States
Destination: KCEC McNamara
United States
More flights between these airports :: More routes between these airports
Route: DEZRT TIPTN
File this flight plan on PilotEdge
Remarks:
Altitude:
(Current/Filed)
41,000ft
Speed:
(Current/Filed)
350kts
Departed: 12-Aug-19 07:06 AM
Arrived: 12-Aug-19 08:43 AM
Distance/Time
Traveled:
574nm/1:37
Distance/Time
To Go:
Arrived

Flight Plot

Page will automatically refresh every two minutes.

Flight plan parsing failed; only flown route is shown


Map Options




Map Legend


Flown Route
Filed Route
Departure Airport
Arrival Airport
Navaid (VOR, NDB)
Fix

Horizontal Profiles

Position Reports

Time Latitude Longitude Heading Altitude Ground
Speed
12-Aug-19 07:00 40.230788 -111.731011 244 4504ft 0kts
12-Aug-19 07:01 40.230788 -111.731011 244 4504ft 0kts
12-Aug-19 07:02 40.230788 -111.731011 244 4504ft 0kts
12-Aug-19 07:03 40.230788 -111.731011 244 4504ft 0kts
12-Aug-19 07:03 40.230788 -111.731011 244 4504ft 0kts
12-Aug-19 07:05 40.230537 -111.731586 237 4504ft 14kts
12-Aug-19 07:05 40.218271 -111.721692 144 4522ft 142kts
12-Aug-19 07:06 40.187176 -111.734966 292 6036ft 184kts
12-Aug-19 07:08 40.241655 -111.776689 325 9693ft 207kts
12-Aug-19 07:09 40.280291 -111.831006 304 13036ft 210kts
12-Aug-19 07:10 40.316119 -111.893820 303 14484ft 231kts
12-Aug-19 07:10 40.350701 -111.954868 304 14476ft 269kts
12-Aug-19 07:11 40.398625 -112.039555 304 14465ft 305kts
12-Aug-19 07:12 40.444849 -112.121027 303 18288ft 210kts
12-Aug-19 07:13 40.481503 -112.186472 302 20191ft 242kts
12-Aug-19 07:14 40.526670 -112.266992 302 21878ft 284kts
12-Aug-19 07:15 40.575074 -112.353473 302 23735ft 310kts
12-Aug-19 07:16 40.630561 -112.453035 302 24652ft 356kts
12-Aug-19 07:17 40.689315 -112.558329 302 26691ft 358kts
12-Aug-19 07:18 40.748958 -112.665849 301 28106ft 372kts
12-Aug-19 07:19 40.809562 -112.775391 301 29998ft 367kts
12-Aug-19 07:20 40.842120 -112.896379 269 31692ft 349kts
12-Aug-19 07:21 40.842540 -113.024815 267 32979ft 353kts
12-Aug-19 07:22 40.842620 -113.153777 268 34230ft 355kts
12-Aug-19 07:23 40.842739 -113.283634 267 35527ft 352kts
12-Aug-19 07:24 40.842724 -113.412020 267 36591ft 352kts
12-Aug-19 07:25 40.842554 -113.542518 267 37425ft 356kts
12-Aug-19 07:26 40.842261 -113.669073 267 38263ft 355kts
12-Aug-19 07:27 40.841861 -113.799357 268 39038ft 356kts
12-Aug-19 07:28 40.854644 -113.928755 276 39729ft 359kts
12-Aug-19 07:29 40.872267 -114.058484 277 40256ft 362kts
12-Aug-19 07:30 40.889873 -114.189225 277 40824ft 361kts
12-Aug-19 07:31 40.907237 -114.319438 277 41273ft 362kts
12-Aug-19 07:32 40.924729 -114.451985 277 41304ft 374kts
12-Aug-19 07:33 40.942586 -114.588331 277 41303ft 386kts
12-Aug-19 07:34 40.960300 -114.724901 276 41309ft 397kts
12-Aug-19 07:35 40.978833 -114.869328 276 41307ft 408kts
12-Aug-19 07:36 40.997802 -115.018563 277 41308ft 417kts
12-Aug-19 07:37 41.016810 -115.169696 277 41318ft 423kts
12-Aug-19 07:38 41.035920 -115.323512 277 41320ft 427kts
12-Aug-19 07:39 41.055041 -115.479206 277 41319ft 431kts
12-Aug-19 07:40 41.074004 -115.635177 277 41318ft 432kts
12-Aug-19 07:41 41.092533 -115.789835 276 41324ft 435kts
12-Aug-19 07:42 41.110584 -115.942128 276 41319ft 436kts
12-Aug-19 07:43 41.129104 -116.100193 277 41301ft 437kts
12-Aug-19 07:44 41.147449 -116.259060 276 41290ft 438kts
12-Aug-19 07:45 41.165582 -116.417827 277 41289ft 438kts
12-Aug-19 07:46 41.183569 -116.577248 277 41288ft 438kts
12-Aug-19 07:47 41.201117 -116.734828 276 41294ft 438kts
12-Aug-19 07:48 41.218560 -116.893452 276 41293ft 438kts
12-Aug-19 07:49 41.235833 -117.052206 276 41275ft 439kts
12-Aug-19 07:50 41.252832 -117.210538 276 41263ft 439kts
12-Aug-19 07:51 41.269729 -117.370384 276 41262ft 439kts
12-Aug-19 07:52 41.286360 -117.529846 276 41261ft 438kts
12-Aug-19 07:53 41.302788 -117.689459 276 41268ft 438kts
12-Aug-19 07:54 41.318905 -117.847893 276 41266ft 438kts
12-Aug-19 07:55 41.334790 -118.007564 276 41261ft 438kts
12-Aug-19 07:56 41.350591 -118.168097 276 41258ft 438kts
12-Aug-19 07:57 41.366087 -118.327747 276 41258ft 438kts
12-Aug-19 07:58 41.381430 -118.488187 276 41258ft 438kts
12-Aug-19 07:59 41.396471 -118.647877 276 41258ft 438kts
12-Aug-19 08:00 41.410864 -118.803014 275 41265ft 438kts
12-Aug-19 08:01 41.425466 -118.962830 275 41274ft 438kts
12-Aug-19 08:02 41.439860 -119.122866 275 41282ft 438kts
12-Aug-19 08:03 41.453980 -119.282390 275 41281ft 438kts
12-Aug-19 08:04 41.467835 -119.441482 275 41280ft 438kts
12-Aug-19 08:05 41.481402 -119.599833 275 41279ft 438kts
12-Aug-19 08:06 41.494398 -119.754032 275 41285ft 438kts
12-Aug-19 08:07 41.506935 -119.905229 275 41284ft 438kts
12-Aug-19 08:08 41.519103 -120.054201 275 41283ft 438kts
12-Aug-19 08:09 41.531098 -120.203737 275 40653ft 440kts
12-Aug-19 08:10 41.543490 -120.360893 276 38964ft 425kts
12-Aug-19 08:11 41.554840 -120.507282 276 37398ft 409kts
12-Aug-19 08:12 41.565988 -120.653457 275 35834ft 399kts
12-Aug-19 08:13 41.576798 -120.797639 274 34379ft 399kts
12-Aug-19 08:14 41.587849 -120.947839 274 32907ft 412kts
12-Aug-19 08:15 41.598893 -121.100600 274 31438ft 422kts
12-Aug-19 08:16 41.610115 -121.258815 274 29922ft 430kts
12-Aug-19 08:17 41.621269 -121.419228 274 28320ft 437kts
12-Aug-19 08:18 41.632331 -121.581705 274 26708ft 441kts
12-Aug-19 08:19 41.643218 -121.745004 274 25116ft 444kts
12-Aug-19 08:20 41.654012 -121.910572 274 24273ft 456kts
12-Aug-19 08:21 41.665011 -122.083238 274 24247ft 466kts
12-Aug-19 08:22 41.675727 -122.255508 274 22711ft 465kts
12-Aug-19 08:23 41.686009 -122.424968 274 20824ft 461kts
12-Aug-19 08:24 41.696054 -122.594696 274 19084ft 453kts
12-Aug-19 08:25 41.690994 -122.761115 259 17516ft 445kts
12-Aug-19 08:26 41.666650 -122.922058 259 16004ft 436kts
12-Aug-19 08:27 41.644247 -123.079354 259 14492ft 423kts
12-Aug-19 08:28 41.622713 -123.231940 259 12981ft 412kts
12-Aug-19 08:29 41.601425 -123.381441 259 11473ft 407kts
12-Aug-19 08:30 41.580097 -123.529758 259 11021ft 407kts
12-Aug-19 08:31 41.558791 -123.676436 259 11017ft 398kts
12-Aug-19 08:32 41.537357 -123.822656 259 11017ft 399kts
12-Aug-19 08:33 41.517585 -123.956165 259 9117ft 308kts
12-Aug-19 08:34 41.502800 -124.055407 259 8601ft 260kts
12-Aug-19 08:35 41.488288 -124.152369 259 8602ft 271kts
12-Aug-19 08:36 41.499782 -124.242597 329 8613ft 263kts
12-Aug-19 08:37 41.566439 -124.272489 343 6869ft 250kts
12-Aug-19 08:38 41.633213 -124.284253 14 3961ft 240kts
12-Aug-19 08:39 41.696339 -124.264290 13 1637ft 215kts
12-Aug-19 08:40 41.742456 -124.249941 13 705ft 121kts
12-Aug-19 08:41 41.772574 -124.240516 12 82ft 113kts
12-Aug-19 08:42 41.785842 -124.235144 167 64ft 4kts
12-Aug-19 08:43 41.783373 -124.235643 194 64ft 28kts
12-Aug-19 08:44 41.778736 -124.235593 226 64ft 0kts
12-Aug-19 08:45 41.778736 -124.235593 226 64ft 0kts
12-Aug-19 08:46 41.778736 -124.235593 226 64ft 0kts
12-Aug-19 08:47 41.778736 -124.235593 226 64ft 0kts
12-Aug-19 08:48 41.778736 -124.235593 226 64ft 0kts

Navigation Log

Ident Type
Flight plan parsing failed, navigation log unavailable